sensor_id;sensor_type;location;lat;lon;timestamp;P1;P2;P0
49570;PMS7003;36970;39.352;20.286;2023-07-13T00:02:10;22.00;22.00;18.00
49570;PMS7003;36970;39.352;20.286;2023-07-13T00:32:12;21.67;21.67;17.33
49570;PMS7003;36970;39.352;20.286;2023-07-13T01:02:14;25.00;24.00;17.00
49570;PMS7003;36970;39.352;20.286;2023-07-13T01:32:18;20.33;20.33;17.00
49570;PMS7003;36970;39.352;20.286;2023-07-13T02:02:20;21.67;21.67;17.67
49570;PMS7003;36970;39.352;20.286;2023-07-13T02:32:22;26.00;26.00;19.00
49570;PMS7003;36970;39.352;20.286;2023-07-13T03:02:26;23.00;21.67;17.33
49570;PMS7003;36970;39.352;20.286;2023-07-13T03:32:29;26.33;25.00;18.33
49570;PMS7003;36970;39.352;20.286;2023-07-13T04:02:31;23.00;23.00;18.67
49570;PMS7003;36970;39.352;20.286;2023-07-13T04:32:33;25.67;23.67;19.00
49570;PMS7003;36970;39.352;20.286;2023-07-13T05:02:37;28.00;26.00;19.00
49570;PMS7003;36970;39.352;20.286;2023-07-13T05:32:39;24.33;22.67;17.67
49570;PMS7003;36970;39.352;20.286;2023-07-13T06:02:41;33.67;29.33;22.00
49570;PMS7003;36970;39.352;20.286;2023-07-13T06:32:43;25.67;25.00;18.33
49570;PMS7003;36970;39.352;20.286;2023-07-13T07:02:45;28.00;27.67;18.00
49570;PMS7003;36970;39.352;20.286;2023-07-13T07:32:47;29.67;27.33;20.33
49570;PMS7003;36970;39.352;20.286;2023-07-13T08:02:49;29.33;27.00;20.00
49570;PMS7003;36970;39.352;20.286;2023-07-13T08:32:51;31.33;29.33;20.00
49570;PMS7003;36970;39.352;20.286;2023-07-13T09:02:57;21.33;21.00;18.00
49570;PMS7003;36970;39.352;20.286;2023-07-13T09:32:59;29.00;27.00;21.00
49570;PMS7003;36970;39.352;20.286;2023-07-13T10:18:34;27.33;26.33;19.00
49570;PMS7003;36970;39.352;20.286;2023-07-13T10:48:39;26.67;25.00;18.33
49570;PMS7003;36970;39.352;20.286;2023-07-13T11:18:42;20.67;20.67;14.67
49570;PMS7003;36970;39.352;20.286;2023-07-13T11:48:46;12.67;12.67;10.00
49570;PMS7003;36970;39.352;20.286;2023-07-13T12:18:49;20.33;20.33;15.33
49570;PMS7003;36970;39.352;20.286;2023-07-13T12:48:54;17.33;17.00;15.00
49570;PMS7003;36970;39.352;20.286;2023-07-13T13:18:56;21.00;20.33;15.67
49570;PMS7003;36970;39.352;20.286;2023-07-13T13:48:58;14.33;13.33;11.33
49570;PMS7003;36970;39.352;20.286;2023-07-13T14:19:00;14.00;13.00;11.33
49570;PMS7003;36970;39.352;20.286;2023-07-13T14:49:04;13.33;13.33;10.67
49570;PMS7003;36970;39.352;20.286;2023-07-13T15:19:07;13.33;12.33;10.00
49570;PMS7003;36970;39.352;20.286;2023-07-13T15:49:10;12.00;12.00;10.33
49570;PMS7003;36970;39.352;20.286;2023-07-13T16:19:12;12.33;10.67;9.33
49570;PMS7003;36970;39.352;20.286;2023-07-13T16:49:20;10.67;10.33;9.00
49570;PMS7003;36970;39.352;20.286;2023-07-13T17:19:26;13.00;13.00;10.67
49570;PMS7003;36970;39.352;20.286;2023-07-13T17:49:29;12.00;12.00;10.00
49570;PMS7003;36970;39.352;20.286;2023-07-13T18:19:32;10.33;10.33;9.00
49570;PMS7003;36970;39.352;20.286;2023-07-13T18:49:34;11.67;11.00;8.00
49570;PMS7003;36970;39.352;20.286;2023-07-13T19:19:36;11.67;11.67;8.67
49570;PMS7003;36970;39.352;20.286;2023-07-13T19:49:38;11.33;11.33;8.67
49570;PMS7003;36970;39.352;20.286;2023-07-13T20:19:40;10.00;10.00;9.00
49570;PMS7003;36970;39.352;20.286;2023-07-13T20:49:42;18.67;15.00;10.00
49570;PMS7003;36970;39.352;20.286;2023-07-13T21:19:44;11.33;11.33;9.00
49570;PMS7003;36970;39.352;20.286;2023-07-13T21:49:46;10.00;9.33;9.00
49570;PMS7003;36970;39.352;20.286;2023-07-13T22:19:49;13.33;11.00;9.00
49570;PMS7003;36970;39.352;20.286;2023-07-13T22:49:50;9.67;9.67;9.00
49570;PMS7003;36970;39.352;20.286;2023-07-13T23:19:52;12.00;10.33;9.00
49570;PMS7003;36970;39.352;20.286;2023-07-13T23:49:54;9.67;8.67;8.00
